sensor_id;sensor_type;location;lat;lon;timestamp;P1;durP1;ratioP1;P2;durP2;ratioP2
49029;SDS011;43337;52.070;4.508;2023-05-10T00:01:24;47.47;;;18.17;;
49029;SDS011;43337;52.070;4.508;2023-05-10T00:03:50;41.72;;;16.50;;
49029;SDS011;43337;52.070;4.508;2023-05-10T00:06:15;44.33;;;17.98;;
49029;SDS011;43337;52.070;4.508;2023-05-10T00:08:41;41.88;;;17.17;;
49029;SDS011;43337;52.070;4.508;2023-05-10T00:11:06;45.78;;;19.55;;
49029;SDS011;43337;52.070;4.508;2023-05-10T00:13:31;45.58;;;18.52;;
49029;SDS011;43337;52.070;4.508;2023-05-10T00:15:57;42.03;;;17.45;;
49029;SDS011;43337;52.070;4.508;2023-05-10T00:18:24;46.42;;;19.20;;
49029;SDS011;43337;52.070;4.508;2023-05-10T00:20:50;52.78;;;19.35;;
49029;SDS011;43337;52.070;4.508;2023-05-10T00:23:16;42.42;;;19.17;;
49029;SDS011;43337;52.070;4.508;2023-05-10T00:25:43;46.00;;;19.33;;
49029;SDS011;43337;52.070;4.508;2023-05-10T00:28:08;40.40;;;17.98;;
49029;SDS011;43337;52.070;4.508;2023-05-10T00:30:33;48.65;;;19.30;;
49029;SDS011;43337;52.070;4.508;2023-05-10T00:32:59;50.95;;;20.23;;
49029;SDS011;43337;52.070;4.508;2023-05-10T00:35:25;49.85;;;20.13;;
49029;SDS011;43337;52.070;4.508;2023-05-10T00:37:51;50.83;;;21.25;;
49029;SDS011;43337;52.070;4.508;2023-05-10T00:40:16;56.33;;;20.98;;
49029;SDS011;43337;52.070;4.508;2023-05-10T00:42:41;50.95;;;21.23;;
49029;SDS011;43337;52.070;4.508;2023-05-10T00:45:07;56.90;;;20.35;;
49029;SDS011;43337;52.070;4.508;2023-05-10T00:47:33;49.40;;;19.27;;
49029;SDS011;43337;52.070;4.508;2023-05-10T00:49:59;56.72;;;21.88;;
49029;SDS011;43337;52.070;4.508;2023-05-10T00:52:28;46.38;;;20.40;;
49029;SDS011;43337;52.070;4.508;2023-05-10T00:54:54;56.88;;;21.95;;
49029;SDS011;43337;52.070;4.508;2023-05-10T00:57:23;66.07;;;24.02;;
49029;SDS011;43337;52.070;4.508;2023-05-10T00:59:49;76.53;;;26.52;;
49029;SDS011;43337;52.070;4.508;2023-05-10T01:02:15;112.18;;;30.90;;
49029;SDS011;43337;52.070;4.508;2023-05-10T01:04:40;101.53;;;30.33;;
49029;SDS011;43337;52.070;4.508;2023-05-10T01:07:06;110.93;;;33.78;;
49029;SDS011;43337;52.070;4.508;2023-05-10T01:09:32;156.52;;;36.40;;
49029;SDS011;43337;52.070;4.508;2023-05-10T01:11:58;168.63;;;36.05;;
49029;SDS011;43337;52.070;4.508;2023-05-10T01:14:24;315.88;;;43.25;;
49029;SDS011;43337;52.070;4.508;2023-05-10T01:16:51;309.85;;;42.75;;
49029;SDS011;43337;52.070;4.508;2023-05-10T01:22:19;202.80;;;31.60;;
49029;SDS011;43337;52.070;4.508;2023-05-10T01:25:01;335.65;;;37.13;;
49029;SDS011;43337;52.070;4.508;2023-05-10T01:35:36;224.50;;;31.45;;
49029;SDS011;43337;52.070;4.508;2023-05-10T01:43:55;201.07;;;29.88;;
49029;SDS011;43337;52.070;4.508;2023-05-10T01:46:36;180.55;;;29.88;;
49029;SDS011;43337;52.070;4.508;2023-05-10T01:49:03;203.38;;;30.65;;
49029;SDS011;43337;52.070;4.508;2023-05-10T01:54:26;179.48;;;29.65;;
49029;SDS011;43337;52.070;4.508;2023-05-10T01:56:59;173.77;;;29.65;;
49029;SDS011;43337;52.070;4.508;2023-05-10T01:59:29;164.57;;;29.63;;
49029;SDS011;43337;52.070;4.508;2023-05-10T02:02:01;147.32;;;31.70;;
49029;SDS011;43337;52.070;4.508;2023-05-10T02:04:29;140.65;;;32.20;;
49029;SDS011;43337;52.070;4.508;2023-05-10T02:06:55;141.77;;;33.25;;
49029;SDS011;43337;52.070;4.508;2023-05-10T02:09:21;138.13;;;30.60;;
49029;SDS011;43337;52.070;4.508;2023-05-10T02:11:50;115.22;;;31.20;;
49029;SDS011;43337;52.070;4.508;2023-05-10T02:14:17;121.35;;;29.88;;
49029;SDS011;43337;52.070;4.508;2023-05-10T02:16:43;124.80;;;30.00;;
49029;SDS011;43337;52.070;4.508;2023-05-10T02:19:12;124.78;;;30.02;;
49029;SDS011;43337;52.070;4.508;2023-05-10T02:21:40;122.70;;;30.33;;
49029;SDS011;43337;52.070;4.508;2023-05-10T02:24:06;122.88;;;29.63;;
49029;SDS011;43337;52.070;4.508;2023-05-10T02:26:34;113.90;;;29.35;;
49029;SDS011;43337;52.070;4.508;2023-05-10T02:29:01;124.82;;;31.67;;
49029;SDS011;43337;52.070;4.508;2023-05-10T02:31:28;113.93;;;29.58;;
49029;SDS011;43337;52.070;4.508;2023-05-10T02:33:56;122.07;;;30.80;;
49029;SDS011;43337;52.070;4.508;2023-05-10T02:36:25;112.20;;;30.10;;
49029;SDS011;43337;52.070;4.508;2023-05-10T02:38:52;94.75;;;27.45;;
49029;SDS011;43337;52.070;4.508;2023-05-10T02:41:19;114.70;;;30.42;;
49029;SDS011;43337;52.070;4.508;2023-05-10T02:43:48;98.80;;;30.63;;
49029;SDS011;43337;52.070;4.508;2023-05-10T02:46:16;102.57;;;31.90;;
49029;SDS011;43337;52.070;4.508;2023-05-10T02:48:41;104.60;;;29.73;;
49029;SDS011;43337;52.070;4.508;2023-05-10T02:51:07;111.88;;;33.85;;
49029;SDS011;43337;52.070;4.508;2023-05-10T02:53:34;100.22;;;29.23;;
49029;SDS011;43337;52.070;4.508;2023-05-10T02:56:10;92.25;;;28.98;;
49029;SDS011;43337;52.070;4.508;2023-05-10T02:58:40;97.75;;;33.53;;
49029;SDS011;43337;52.070;4.508;2023-05-10T03:01:05;96.45;;;32.53;;
49029;SDS011;43337;52.070;4.508;2023-05-10T03:03:32;96.60;;;31.60;;
49029;SDS011;43337;52.070;4.508;2023-05-10T03:05:59;101.28;;;33.35;;
49029;SDS011;43337;52.070;4.508;2023-05-10T03:08:24;99.35;;;34.28;;
49029;SDS011;43337;52.070;4.508;2023-05-10T03:18:47;91.47;;;32.47;;
49029;SDS011;43337;52.070;4.508;2023-05-10T03:21:20;101.10;;;38.13;;
49029;SDS011;43337;52.070;4.508;2023-05-10T03:23:50;109.38;;;41.85;;
49029;SDS011;43337;52.070;4.508;2023-05-10T03:26:23;101.50;;;39.78;;
49029;SDS011;43337;52.070;4.508;2023-05-10T03:28:53;103.85;;;41.13;;
49029;SDS011;43337;52.070;4.508;2023-05-10T03:31:19;107.28;;;41.60;;
49029;SDS011;43337;52.070;4.508;2023-05-10T03:33:49;106.32;;;40.53;;
49029;SDS011;43337;52.070;4.508;2023-05-10T03:36:15;106.45;;;43.30;;
49029;SDS011;43337;52.070;4.508;2023-05-10T03:38:42;109.78;;;43.17;;
49029;SDS011;43337;52.070;4.508;2023-05-10T03:41:09;101.28;;;39.58;;
49029;SDS011;43337;52.070;4.508;2023-05-10T03:43:36;105.80;;;43.53;;
49029;SDS011;43337;52.070;4.508;2023-05-10T03:46:05;110.80;;;44.58;;
49029;SDS011;43337;52.070;4.508;2023-05-10T03:48:32;103.10;;;42.95;;
49029;SDS011;43337;52.070;4.508;2023-05-10T03:50:59;99.72;;;42.97;;
49029;SDS011;43337;52.070;4.508;2023-05-10T03:53:24;107.05;;;45.75;;
49029;SDS011;43337;52.070;4.508;2023-05-10T03:55:50;98.30;;;42.05;;
49029;SDS011;43337;52.070;4.508;2023-05-10T03:58:15;113.80;;;44.47;;
49029;SDS011;43337;52.070;4.508;2023-05-10T04:00:42;105.25;;;45.85;;
49029;SDS011;43337;52.070;4.508;2023-05-10T04:03:10;86.65;;;39.75;;
49029;SDS011;43337;52.070;4.508;2023-05-10T04:05:36;95.72;;;40.65;;
49029;SDS011;43337;52.070;4.508;2023-05-10T04:08:01;98.03;;;43.10;;
49029;SDS011;43337;52.070;4.508;2023-05-10T04:10:27;85.03;;;40.50;;
49029;SDS011;43337;52.070;4.508;2023-05-10T04:12:54;78.85;;;37.17;;
49029;SDS011;43337;52.070;4.508;2023-05-10T04:15:19;88.55;;;38.65;;
49029;SDS011;43337;52.070;4.508;2023-05-10T04:17:45;85.53;;;36.55;;
49029;SDS011;43337;52.070;4.508;2023-05-10T04:20:10;83.75;;;35.10;;
49029;SDS011;43337;52.070;4.508;2023-05-10T04:22:36;76.07;;;31.38;;
49029;SDS011;43337;52.070;4.508;2023-05-10T04:25:02;100.15;;;30.17;;
49029;SDS011;43337;52.070;4.508;2023-05-10T04:27:28;99.20;;;28.90;;
49029;SDS011;43337;52.070;4.508;2023-05-10T04:29:53;112.80;;;25.42;;
49029;SDS011;43337;52.070;4.508;2023-05-10T04:32:19;133.63;;;24.02;;
49029;SDS011;43337;52.070;4.508;2023-05-10T04:34:45;105.03;;;21.23;;
49029;SDS011;43337;52.070;4.508;2023-05-10T04:37:10;111.85;;;20.45;;
49029;SDS011;43337;52.070;4.508;2023-05-10T04:39:39;101.25;;;23.33;;
49029;SDS011;43337;52.070;4.508;2023-05-10T04:42:04;102.03;;;20.88;;
49029;SDS011;43337;52.070;4.508;2023-05-10T04:44:30;78.15;;;18.95;;
49029;SDS011;43337;52.070;4.508;2023-05-10T04:46:58;103.05;;;22.17;;
49029;SDS011;43337;52.070;4.508;2023-05-10T04:49:23;60.97;;;17.05;;
49029;SDS011;43337;52.070;4.508;2023-05-10T04:51:51;67.63;;;18.38;;
49029;SDS011;43337;52.070;4.508;2023-05-10T04:54:18;71.97;;;18.38;;
49029;SDS011;43337;52.070;4.508;2023-05-10T04:56:43;84.88;;;21.65;;
49029;SDS011;43337;52.070;4.508;2023-05-10T04:59:09;81.55;;;21.88;;
49029;SDS011;43337;52.070;4.508;2023-05-10T05:01:34;69.10;;;20.95;;
49029;SDS011;43337;52.070;4.508;2023-05-10T05:04:01;89.93;;;24.13;;
49029;SDS011;43337;52.070;4.508;2023-05-10T05:06:26;79.38;;;25.40;;
49029;SDS011;43337;52.070;4.508;2023-05-10T05:08:52;61.70;;;21.13;;
49029;SDS011;43337;52.070;4.508;2023-05-10T05:11:17;67.90;;;22.20;;
49029;SDS011;43337;52.070;4.508;2023-05-10T05:13:44;60.40;;;23.13;;
49029;SDS011;43337;52.070;4.508;2023-05-10T05:16:10;62.22;;;20.92;;
49029;SDS011;43337;52.070;4.508;2023-05-10T05:18:37;61.72;;;18.30;;
49029;SDS011;43337;52.070;4.508;2023-05-10T05:21:02;69.32;;;18.10;;
49029;SDS011;43337;52.070;4.508;2023-05-10T05:23:27;61.08;;;16.88;;
49029;SDS011;43337;52.070;4.508;2023-05-10T05:25:53;57.38;;;15.18;;
49029;SDS011;43337;52.070;4.508;2023-05-10T05:28:19;56.88;;;15.00;;
49029;SDS011;43337;52.070;4.508;2023-05-10T05:30:45;52.25;;;14.38;;
49029;SDS011;43337;52.070;4.508;2023-05-10T05:33:11;44.65;;;13.23;;
49029;SDS011;43337;52.070;4.508;2023-05-10T05:35:36;47.03;;;12.75;;
49029;SDS011;43337;52.070;4.508;2023-05-10T05:38:02;45.83;;;13.30;;
49029;SDS011;43337;52.070;4.508;2023-05-10T05:40:28;45.97;;;12.25;;
49029;SDS011;43337;52.070;4.508;2023-05-10T05:42:54;36.38;;;11.00;;
49029;SDS011;43337;52.070;4.508;2023-05-10T05:45:20;30.55;;;11.40;;
49029;SDS011;43337;52.070;4.508;2023-05-10T05:47:46;26.90;;;10.50;;
49029;SDS011;43337;52.070;4.508;2023-05-10T05:50:11;29.45;;;10.52;;
49029;SDS011;43337;52.070;4.508;2023-05-10T05:52:36;31.05;;;10.88;;
49029;SDS011;43337;52.070;4.508;2023-05-10T05:55:02;26.40;;;10.05;;
49029;SDS011;43337;52.070;4.508;2023-05-10T05:57:27;28.35;;;10.32;;
49029;SDS011;43337;52.070;4.508;2023-05-10T05:59:53;24.88;;;10.30;;
49029;SDS011;43337;52.070;4.508;2023-05-10T06:02:18;26.80;;;10.65;;
49029;SDS011;43337;52.070;4.508;2023-05-10T06:04:43;26.50;;;10.93;;
49029;SDS011;43337;52.070;4.508;2023-05-10T06:07:09;22.42;;;9.30;;
49029;SDS011;43337;52.070;4.508;2023-05-10T06:09:34;20.27;;;10.05;;
49029;SDS011;43337;52.070;4.508;2023-05-10T06:12:00;52.72;;;25.00;;
49029;SDS011;43337;52.070;4.508;2023-05-10T06:14:25;32.40;;;15.05;;
49029;SDS011;43337;52.070;4.508;2023-05-10T06:16:51;21.05;;;9.45;;
49029;SDS011;43337;52.070;4.508;2023-05-10T06:19:16;24.67;;;9.90;;
49029;SDS011;43337;52.070;4.508;2023-05-10T06:21:41;19.92;;;8.20;;
49029;SDS011;43337;52.070;4.508;2023-05-10T06:24:07;27.73;;;13.48;;
49029;SDS011;43337;52.070;4.508;2023-05-10T06:26:33;20.55;;;9.73;;
49029;SDS011;43337;52.070;4.508;2023-05-10T06:28:58;18.67;;;9.85;;
49029;SDS011;43337;52.070;4.508;2023-05-10T06:31:24;16.25;;;7.60;;
49029;SDS011;43337;52.070;4.508;2023-05-10T06:33:49;13.88;;;7.03;;
49029;SDS011;43337;52.070;4.508;2023-05-10T06:36:14;16.92;;;7.07;;
49029;SDS011;43337;52.070;4.508;2023-05-10T06:38:40;13.13;;;6.88;;
49029;SDS011;43337;52.070;4.508;2023-05-10T06:41:05;12.75;;;5.93;;
49029;SDS011;43337;52.070;4.508;2023-05-10T06:43:31;11.60;;;5.45;;
49029;SDS011;43337;52.070;4.508;2023-05-10T06:45:56;11.13;;;5.63;;
49029;SDS011;43337;52.070;4.508;2023-05-10T06:48:22;9.88;;;5.45;;
49029;SDS011;43337;52.070;4.508;2023-05-10T06:50:48;10.07;;;4.90;;
49029;SDS011;43337;52.070;4.508;2023-05-10T06:53:13;12.98;;;5.47;;
49029;SDS011;43337;52.070;4.508;2023-05-10T06:55:39;10.60;;;5.68;;
49029;SDS011;43337;52.070;4.508;2023-05-10T06:58:04;23.55;;;12.60;;
49029;SDS011;43337;52.070;4.508;2023-05-10T07:00:31;12.52;;;6.28;;
49029;SDS011;43337;52.070;4.508;2023-05-10T07:02:56;10.65;;;5.75;;
49029;SDS011;43337;52.070;4.508;2023-05-10T07:05:21;12.43;;;6.57;;
49029;SDS011;43337;52.070;4.508;2023-05-10T07:07:47;12.82;;;6.75;;
49029;SDS011;43337;52.070;4.508;2023-05-10T07:10:12;12.05;;;6.03;;
49029;SDS011;43337;52.070;4.508;2023-05-10T07:12:38;13.45;;;6.93;;
49029;SDS011;43337;52.070;4.508;2023-05-10T07:15:04;13.25;;;6.95;;
49029;SDS011;43337;52.070;4.508;2023-05-10T07:17:29;11.20;;;5.97;;
49029;SDS011;43337;52.070;4.508;2023-05-10T07:19:55;11.98;;;6.30;;
49029;SDS011;43337;52.070;4.508;2023-05-10T07:22:20;15.07;;;6.88;;
49029;SDS011;43337;52.070;4.508;2023-05-10T07:24:46;15.93;;;7.30;;
49029;SDS011;43337;52.070;4.508;2023-05-10T07:27:11;11.98;;;6.45;;
49029;SDS011;43337;52.070;4.508;2023-05-10T07:29:37;13.13;;;7.05;;
49029;SDS011;43337;52.070;4.508;2023-05-10T07:32:03;12.80;;;6.43;;
49029;SDS011;43337;52.070;4.508;2023-05-10T07:34:28;12.60;;;6.38;;
49029;SDS011;43337;52.070;4.508;2023-05-10T07:36:55;12.90;;;5.97;;
49029;SDS011;43337;52.070;4.508;2023-05-10T07:39:23;12.88;;;5.38;;
49029;SDS011;43337;52.070;4.508;2023-05-10T07:41:49;10.57;;;5.28;;
49029;SDS011;43337;52.070;4.508;2023-05-10T07:44:15;12.65;;;6.15;;
49029;SDS011;43337;52.070;4.508;2023-05-10T07:46:43;13.25;;;5.70;;
49029;SDS011;43337;52.070;4.508;2023-05-10T07:49:09;11.02;;;5.47;;
49029;SDS011;43337;52.070;4.508;2023-05-10T07:51:34;9.30;;;5.07;;
49029;SDS011;43337;52.070;4.508;2023-05-10T07:54:00;9.68;;;5.55;;
49029;SDS011;43337;52.070;4.508;2023-05-10T07:56:28;10.93;;;5.45;;
49029;SDS011;43337;52.070;4.508;2023-05-10T07:58:59;11.63;;;5.38;;
49029;SDS011;43337;52.070;4.508;2023-05-10T08:01:25;12.40;;;6.53;;
49029;SDS011;43337;52.070;4.508;2023-05-10T08:03:51;13.45;;;6.35;;
49029;SDS011;43337;52.070;4.508;2023-05-10T08:06:20;14.02;;;6.03;;
49029;SDS011;43337;52.070;4.508;2023-05-10T08:08:46;11.85;;;6.03;;
49029;SDS011;43337;52.070;4.508;2023-05-10T08:11:17;15.10;;;6.25;;
49029;SDS011;43337;52.070;4.508;2023-05-10T08:13:43;11.38;;;4.72;;
49029;SDS011;43337;52.070;4.508;2023-05-10T08:16:09;10.35;;;5.22;;
49029;SDS011;43337;52.070;4.508;2023-05-10T08:18:34;8.80;;;4.65;;
49029;SDS011;43337;52.070;4.508;2023-05-10T08:21:00;9.65;;;4.50;;
49029;SDS011;43337;52.070;4.508;2023-05-10T08:23:25;9.38;;;4.18;;
49029;SDS011;43337;52.070;4.508;2023-05-10T08:25:50;8.65;;;3.85;;
49029;SDS011;43337;52.070;4.508;2023-05-10T08:28:16;7.45;;;4.25;;
49029;SDS011;43337;52.070;4.508;2023-05-10T08:30:41;7.18;;;3.60;;
49029;SDS011;43337;52.070;4.508;2023-05-10T08:33:06;7.72;;;4.03;;
49029;SDS011;43337;52.070;4.508;2023-05-10T08:35:32;9.63;;;3.80;;
49029;SDS011;43337;52.070;4.508;2023-05-10T08:37:59;6.22;;;3.42;;
49029;SDS011;43337;52.070;4.508;2023-05-10T08:40:24;9.38;;;3.70;;
49029;SDS011;43337;52.070;4.508;2023-05-10T08:42:55;6.90;;;3.25;;
49029;SDS011;43337;52.070;4.508;2023-05-10T08:45:29;5.90;;;3.03;;
49029;SDS011;43337;52.070;4.508;2023-05-10T08:47:58;7.00;;;3.08;;
49029;SDS011;43337;52.070;4.508;2023-05-10T08:50:26;5.93;;;2.92;;
49029;SDS011;43337;52.070;4.508;2023-05-10T08:52:52;8.88;;;3.50;;
49029;SDS011;43337;52.070;4.508;2023-05-10T08:55:19;6.78;;;3.17;;
49029;SDS011;43337;52.070;4.508;2023-05-10T08:57:45;7.28;;;3.30;;
49029;SDS011;43337;52.070;4.508;2023-05-10T09:00:11;5.97;;;3.15;;
49029;SDS011;43337;52.070;4.508;2023-05-10T09:02:38;5.90;;;3.00;;
49029;SDS011;43337;52.070;4.508;2023-05-10T09:05:04;7.00;;;3.45;;
49029;SDS011;43337;52.070;4.508;2023-05-10T09:07:30;6.55;;;3.42;;
49029;SDS011;43337;52.070;4.508;2023-05-10T09:09:56;8.88;;;4.40;;
49029;SDS011;43337;52.070;4.508;2023-05-10T09:12:23;11.35;;;6.20;;
49029;SDS011;43337;52.070;4.508;2023-05-10T09:14:48;11.02;;;5.53;;
49029;SDS011;43337;52.070;4.508;2023-05-10T09:17:17;9.45;;;5.15;;
49029;SDS011;43337;52.070;4.508;2023-05-10T09:19:42;8.77;;;4.72;;
49029;SDS011;43337;52.070;4.508;2023-05-10T09:22:09;11.07;;;5.40;;
49029;SDS011;43337;52.070;4.508;2023-05-10T09:24:35;10.93;;;5.85;;
49029;SDS011;43337;52.070;4.508;2023-05-10T09:27:01;12.45;;;6.60;;
49029;SDS011;43337;52.070;4.508;2023-05-10T09:29:38;14.95;;;6.30;;
49029;SDS011;43337;52.070;4.508;2023-05-10T09:32:05;12.55;;;6.32;;
49029;SDS011;43337;52.070;4.508;2023-05-10T09:34:31;11.00;;;5.53;;
49029;SDS011;43337;52.070;4.508;2023-05-10T09:36:59;11.48;;;5.93;;
49029;SDS011;43337;52.070;4.508;2023-05-10T09:39:30;11.93;;;5.65;;
49029;SDS011;43337;52.070;4.508;2023-05-10T09:41:57;12.15;;;5.65;;
49029;SDS011;43337;52.070;4.508;2023-05-10T09:44:23;13.98;;;6.05;;
49029;SDS011;43337;52.070;4.508;2023-05-10T09:46:50;13.02;;;5.80;;
49029;SDS011;43337;52.070;4.508;2023-05-10T09:49:17;14.07;;;6.18;;
49029;SDS011;43337;52.070;4.508;2023-05-10T09:51:43;12.27;;;5.60;;
49029;SDS011;43337;52.070;4.508;2023-05-10T09:54:13;11.38;;;4.65;;
49029;SDS011;43337;52.070;4.508;2023-05-10T09:56:40;8.27;;;4.70;;
49029;SDS011;43337;52.070;4.508;2023-05-10T09:59:10;10.23;;;4.97;;
49029;SDS011;43337;52.070;4.508;2023-05-10T10:01:36;15.45;;;5.20;;
49029;SDS011;43337;52.070;4.508;2023-05-10T10:04:05;12.82;;;5.40;;
49029;SDS011;43337;52.070;4.508;2023-05-10T10:06:36;17.75;;;7.70;;
49029;SDS011;43337;52.070;4.508;2023-05-10T10:09:02;15.35;;;6.38;;
49029;SDS011;43337;52.070;4.508;2023-05-10T10:11:28;15.18;;;7.43;;
49029;SDS011;43337;52.070;4.508;2023-05-10T10:13:53;15.82;;;7.93;;
49029;SDS011;43337;52.070;4.508;2023-05-10T10:16:20;16.73;;;6.93;;
49029;SDS011;43337;52.070;4.508;2023-05-10T10:18:45;22.88;;;8.60;;
49029;SDS011;43337;52.070;4.508;2023-05-10T10:21:13;17.75;;;8.02;;
49029;SDS011;43337;52.070;4.508;2023-05-10T10:23:39;19.73;;;7.50;;
49029;SDS011;43337;52.070;4.508;2023-05-10T10:26:05;20.40;;;8.77;;
49029;SDS011;43337;52.070;4.508;2023-05-10T10:31:46;17.95;;;8.10;;
49029;SDS011;43337;52.070;4.508;2023-05-10T10:36:54;14.55;;;6.63;;
49029;SDS011;43337;52.070;4.508;2023-05-10T10:39:21;14.65;;;6.32;;
49029;SDS011;43337;52.070;4.508;2023-05-10T10:41:50;15.20;;;7.10;;
49029;SDS011;43337;52.070;4.508;2023-05-10T10:49:31;19.33;;;8.05;;
49029;SDS011;43337;52.070;4.508;2023-05-10T10:57:31;20.25;;;7.95;;
49029;SDS011;43337;52.070;4.508;2023-05-10T11:00:20;18.38;;;7.70;;
49029;SDS011;43337;52.070;4.508;2023-05-10T11:02:50;21.60;;;8.02;;
49029;SDS011;43337;52.070;4.508;2023-05-10T11:07:59;15.82;;;7.30;;
49029;SDS011;43337;52.070;4.508;2023-05-10T11:10:26;16.42;;;7.22;;
49029;SDS011;43337;52.070;4.508;2023-05-10T11:12:53;16.13;;;7.53;;
49029;SDS011;43337;52.070;4.508;2023-05-10T11:15:36;15.25;;;8.05;;
49029;SDS011;43337;52.070;4.508;2023-05-10T11:18:19;14.55;;;7.70;;
49029;SDS011;43337;52.070;4.508;2023-05-10T11:20:52;14.85;;;7.82;;
49029;SDS011;43337;52.070;4.508;2023-05-10T11:23:21;15.48;;;6.70;;
49029;SDS011;43337;52.070;4.508;2023-05-10T11:25:49;15.23;;;7.68;;
49029;SDS011;43337;52.070;4.508;2023-05-10T11:28:16;15.18;;;8.07;;
49029;SDS011;43337;52.070;4.508;2023-05-10T11:30:43;18.15;;;7.88;;
49029;SDS011;43337;52.070;4.508;2023-05-10T11:33:09;17.52;;;8.88;;
49029;SDS011;43337;52.070;4.508;2023-05-10T11:35:40;18.33;;;7.88;;
49029;SDS011;43337;52.070;4.508;2023-05-10T11:38:09;19.67;;;9.25;;
49029;SDS011;43337;52.070;4.508;2023-05-10T11:40:36;19.92;;;8.25;;
49029;SDS011;43337;52.070;4.508;2023-05-10T11:43:02;14.70;;;8.32;;
49029;SDS011;43337;52.070;4.508;2023-05-10T11:45:29;17.77;;;8.52;;
49029;SDS011;43337;52.070;4.508;2023-05-10T11:47:57;21.30;;;9.57;;
49029;SDS011;43337;52.070;4.508;2023-05-10T11:50:23;16.10;;;8.38;;
49029;SDS011;43337;52.070;4.508;2023-05-10T11:52:53;16.33;;;8.00;;
49029;SDS011;43337;52.070;4.508;2023-05-10T11:55:19;18.45;;;8.07;;
49029;SDS011;43337;52.070;4.508;2023-05-10T11:57:45;17.90;;;7.97;;
49029;SDS011;43337;52.070;4.508;2023-05-10T12:00:11;15.20;;;7.13;;
49029;SDS011;43337;52.070;4.508;2023-05-10T12:02:37;16.27;;;7.53;;
49029;SDS011;43337;52.070;4.508;2023-05-10T12:05:04;16.17;;;7.25;;
49029;SDS011;43337;52.070;4.508;2023-05-10T12:07:30;15.43;;;7.40;;
49029;SDS011;43337;52.070;4.508;2023-05-10T12:12:51;14.55;;;6.32;;
49029;SDS011;43337;52.070;4.508;2023-05-10T12:15:24;13.30;;;5.75;;
49029;SDS011;43337;52.070;4.508;2023-05-10T12:17:50;14.55;;;6.30;;
49029;SDS011;43337;52.070;4.508;2023-05-10T12:20:19;13.05;;;6.20;;
49029;SDS011;43337;52.070;4.508;2023-05-10T12:22:50;13.43;;;6.65;;
49029;SDS011;43337;52.070;4.508;2023-05-10T12:25:20;15.98;;;7.38;;
49029;SDS011;43337;52.070;4.508;2023-05-10T12:27:56;14.48;;;6.95;;
49029;SDS011;43337;52.070;4.508;2023-05-10T12:30:28;11.55;;;6.25;;
49029;SDS011;43337;52.070;4.508;2023-05-10T12:33:02;14.63;;;6.22;;
49029;SDS011;43337;52.070;4.508;2023-05-10T12:35:48;14.93;;;6.95;;
49029;SDS011;43337;52.070;4.508;2023-05-10T12:41:01;13.65;;;6.35;;
49029;SDS011;43337;52.070;4.508;2023-05-10T12:43:27;13.13;;;7.10;;
49029;SDS011;43337;52.070;4.508;2023-05-10T12:45:53;15.60;;;7.20;;
49029;SDS011;43337;52.070;4.508;2023-05-10T12:48:19;15.02;;;7.13;;
49029;SDS011;43337;52.070;4.508;2023-05-10T12:50:45;14.38;;;7.68;;
49029;SDS011;43337;52.070;4.508;2023-05-10T12:53:10;16.20;;;7.93;;
49029;SDS011;43337;52.070;4.508;2023-05-10T12:55:36;16.85;;;6.72;;
49029;SDS011;43337;52.070;4.508;2023-05-10T12:58:01;17.33;;;6.80;;
49029;SDS011;43337;52.070;4.508;2023-05-10T13:00:27;11.73;;;5.82;;
49029;SDS011;43337;52.070;4.508;2023-05-10T13:02:54;13.52;;;5.63;;
49029;SDS011;43337;52.070;4.508;2023-05-10T13:05:19;14.15;;;6.47;;
49029;SDS011;43337;52.070;4.508;2023-05-10T13:07:44;11.70;;;5.72;;
49029;SDS011;43337;52.070;4.508;2023-05-10T13:10:10;14.55;;;7.10;;
49029;SDS011;43337;52.070;4.508;2023-05-10T13:12:36;13.35;;;6.55;;
49029;SDS011;43337;52.070;4.508;2023-05-10T13:15:02;13.27;;;5.88;;
49029;SDS011;43337;52.070;4.508;2023-05-10T13:17:28;12.40;;;5.97;;
49029;SDS011;43337;52.070;4.508;2023-05-10T13:19:53;10.80;;;5.35;;
49029;SDS011;43337;52.070;4.508;2023-05-10T13:22:20;9.07;;;5.28;;
49029;SDS011;43337;52.070;4.508;2023-05-10T13:24:45;14.27;;;6.72;;
49029;SDS011;43337;52.070;4.508;2023-05-10T13:27:11;12.90;;;5.35;;
49029;SDS011;43337;52.070;4.508;2023-05-10T13:29:36;10.40;;;5.10;;
49029;SDS011;43337;52.070;4.508;2023-05-10T13:32:01;10.88;;;4.93;;
49029;SDS011;43337;52.070;4.508;2023-05-10T13:34:27;25.15;;;12.98;;
49029;SDS011;43337;52.070;4.508;2023-05-10T13:36:54;20.63;;;10.13;;
49029;SDS011;43337;52.070;4.508;2023-05-10T13:39:21;11.18;;;5.75;;
49029;SDS011;43337;52.070;4.508;2023-05-10T13:41:47;25.58;;;12.82;;
49029;SDS011;43337;52.070;4.508;2023-05-10T13:44:13;13.23;;;7.43;;
49029;SDS011;43337;52.070;4.508;2023-05-10T13:46:39;12.10;;;5.32;;
49029;SDS011;43337;52.070;4.508;2023-05-10T13:49:05;12.15;;;6.10;;
49029;SDS011;43337;52.070;4.508;2023-05-10T13:51:31;10.25;;;4.05;;
49029;SDS011;43337;52.070;4.508;2023-05-10T13:53:59;7.70;;;4.00;;
49029;SDS011;43337;52.070;4.508;2023-05-10T13:56:24;7.00;;;3.72;;
49029;SDS011;43337;52.070;4.508;2023-05-10T13:58:50;7.22;;;3.40;;
49029;SDS011;43337;52.070;4.508;2023-05-10T14:01:16;7.00;;;3.70;;
49029;SDS011;43337;52.070;4.508;2023-05-10T14:03:41;5.65;;;2.88;;
49029;SDS011;43337;52.070;4.508;2023-05-10T14:06:07;6.45;;;3.22;;
49029;SDS011;43337;52.070;4.508;2023-05-10T14:08:33;5.75;;;3.45;;
49029;SDS011;43337;52.070;4.508;2023-05-10T14:10:59;5.53;;;3.03;;
49029;SDS011;43337;52.070;4.508;2023-05-10T14:13:25;6.20;;;3.45;;
49029;SDS011;43337;52.070;4.508;2023-05-10T14:15:50;7.18;;;3.35;;
49029;SDS011;43337;52.070;4.508;2023-05-10T14:18:18;7.55;;;3.47;;
49029;SDS011;43337;52.070;4.508;2023-05-10T14:20:43;7.47;;;3.53;;
49029;SDS011;43337;52.070;4.508;2023-05-10T14:23:09;6.25;;;3.60;;
49029;SDS011;43337;52.070;4.508;2023-05-10T14:25:34;6.63;;;3.25;;
49029;SDS011;43337;52.070;4.508;2023-05-10T14:28:00;6.65;;;2.88;;
49029;SDS011;43337;52.070;4.508;2023-05-10T14:30:25;7.25;;;3.58;;
49029;SDS011;43337;52.070;4.508;2023-05-10T14:32:51;7.47;;;3.00;;
49029;SDS011;43337;52.070;4.508;2023-05-10T14:35:18;7.40;;;3.40;;
49029;SDS011;43337;52.070;4.508;2023-05-10T14:37:44;6.85;;;3.50;;
49029;SDS011;43337;52.070;4.508;2023-05-10T14:40:09;9.63;;;3.88;;
49029;SDS011;43337;52.070;4.508;2023-05-10T14:42:35;7.18;;;3.63;;
49029;SDS011;43337;52.070;4.508;2023-05-10T14:45:00;8.40;;;4.00;;
49029;SDS011;43337;52.070;4.508;2023-05-10T14:47:26;7.15;;;3.47;;
49029;SDS011;43337;52.070;4.508;2023-05-10T14:49:55;7.00;;;3.67;;
49029;SDS011;43337;52.070;4.508;2023-05-10T14:52:20;6.95;;;3.85;;
49029;SDS011;43337;52.070;4.508;2023-05-10T14:54:46;5.97;;;2.92;;
49029;SDS011;43337;52.070;4.508;2023-05-10T14:57:11;7.20;;;3.78;;
49029;SDS011;43337;52.070;4.508;2023-05-10T14:59:36;7.75;;;3.88;;
49029;SDS011;43337;52.070;4.508;2023-05-10T15:02:02;9.18;;;3.97;;
49029;SDS011;43337;52.070;4.508;2023-05-10T15:04:29;7.10;;;3.70;;
49029;SDS011;43337;52.070;4.508;2023-05-10T15:06:54;7.47;;;4.10;;
49029;SDS011;43337;52.070;4.508;2023-05-10T15:09:24;6.43;;;3.63;;
49029;SDS011;43337;52.070;4.508;2023-05-10T15:11:50;5.47;;;3.17;;
49029;SDS011;43337;52.070;4.508;2023-05-10T15:14:15;7.05;;;3.55;;
49029;SDS011;43337;52.070;4.508;2023-05-10T15:16:42;6.15;;;3.17;;
49029;SDS011;43337;52.070;4.508;2023-05-10T15:19:07;6.55;;;3.75;;